To NAV CANADA Home Page Login to a new session Search on AWWS site Disclaimer Vers la page française équivalente Tips FAQ What's new on the site To the Forecasts and Observations / NOTAM section To "File a Flight Plan" website Publications and other links Update of the User's profile FIC Telephone Numbers My Weather Data Folder Route Weather Data Regional Weather Data Local Weather Data To the Forecasts and Observations / NOTAM section
Request Generated 04/24/2019 at 16:01:00 UTC . Weather information available at that time is displayed.

METAR/TAF

CLYDE RIVER/NU    (show WxCam)

METAR CYCY 241500Z 27010KT 25SM IC FEW250 M18/M22 A2992 RMK CI1 SLP139=
METAR CYCY 241400Z 28011KT 25SM IC FEW032 FEW250 M19/M22 A2994 RMK SC1CI1 SLP144=
METAR CYCY 241300Z 29013KT 25SM IC FEW210 BKN250 M20/M24 A2995 RMK CS1CI5 S00 AFT 23 UTC/18 HARD PACK/TRACE LOOSE SLP147=

TAF CYCY 241239Z 2413/2501 29010KT P6SM FEW050 SCT080
BECMG 2416/2418 VRB03KT
RMK FCST BASED ON AUTO OBS. NXT FCST BY 241900Z=
Your time UTC time
Weather data provided by Environment Canada and NAV CANADA